createdAt,value
2023-06-06T00:00:42.660Z,99800.75
2023-06-06T00:01:42.779Z,99800.75
2023-06-06T00:02:42.460Z,99797.19
2023-06-06T00:03:39.553Z,99795.06
2023-06-06T00:04:39.504Z,99799.47
2023-06-06T00:05:36.499Z,99796.84
2023-06-06T00:06:34.987Z,99797.91
2023-06-06T00:07:34.003Z,99801.13
2023-06-06T00:08:30.874Z,99800.28
2023-06-06T00:09:27.738Z,99798.62
2023-06-06T00:10:24.620Z,99793.75
2023-06-06T00:11:22.042Z,99807.06
2023-06-06T00:12:18.962Z,99802.91
2023-06-06T00:13:15.887Z,99802.53
2023-06-06T00:14:13.699Z,99800.25
2023-06-06T00:15:12.037Z,99799.53
2023-06-06T00:16:09.324Z,99802.41
2023-06-06T00:17:07.684Z,99795.66
2023-06-06T00:18:04.841Z,99794.81
2023-06-06T00:19:02.534Z,99794.94
2023-06-06T00:19:59.463Z,99800.41
2023-06-06T00:20:56.329Z,99798.50
2023-06-06T00:21:53.515Z,99789.00
2023-06-06T00:22:54.685Z,99792.19
2023-06-06T00:23:53.712Z,99794.00
2023-06-06T00:24:51.334Z,99796.00
2023-06-06T00:25:52.256Z,99802.53
2023-06-06T00:26:49.207Z,99796.13
2023-06-06T00:27:46.227Z,99794.06
2023-06-06T00:28:43.132Z,99791.50
2023-06-06T00:29:40.089Z,99791.88
2023-06-06T00:30:36.996Z,99797.06
2023-06-06T00:31:33.991Z,99793.50
2023-06-06T00:32:31.112Z,99788.16
2023-06-06T00:33:28.100Z,99787.09
2023-06-06T00:34:24.927Z,99786.28
2023-06-06T00:35:21.780Z,99787.94
2023-06-06T00:36:18.616Z,99783.53
2023-06-06T00:37:15.499Z,99789.47
2023-06-06T00:38:12.433Z,99780.78
2023-06-06T00:39:09.456Z,99778.03
2023-06-06T00:40:08.459Z,99782.44
2023-06-06T00:41:05.460Z,99779.44
2023-06-06T00:42:02.312Z,99789.44
2023-06-06T00:42:59.148Z,99784.94
2023-06-06T00:43:56.039Z,99779.09
2023-06-06T00:44:52.940Z,99781.28
2023-06-06T00:45:49.983Z,99779.81
2023-06-06T00:46:47.126Z,99781.28
2023-06-06T00:47:46.724Z,99775.31
2023-06-06T00:48:43.759Z,99771.06
2023-06-06T00:49:41.502Z,99777.47
2023-06-06T00:50:40.280Z,99779.25
2023-06-06T00:51:37.831Z,99773.53
2023-06-06T00:52:35.670Z,99779.94
2023-06-06T00:53:32.600Z,99777.09
2023-06-06T00:54:31.210Z,99772.22
2023-06-06T00:55:28.125Z,99775.81
2023-06-06T00:56:29.671Z,99772.22
2023-06-06T00:57:28.101Z,99777.22
2023-06-06T00:58:26.062Z,99771.75
2023-06-06T00:59:24.420Z,99769.97
2023-06-06T01:00:21.408Z,99775.53
2023-06-06T01:01:20.932Z,99777.47
2023-06-06T01:02:21.887Z,99773.41
2023-06-06T01:03:21.149Z,99772.13
2023-06-06T01:04:18.672Z,99774.59
2023-06-06T01:05:20.556Z,99774.16
2023-06-06T01:06:17.812Z,99774.50
2023-06-06T01:07:18.785Z,99763.56
2023-06-06T01:08:16.167Z,99771.16
2023-06-06T01:09:14.948Z,99771.66
2023-06-06T01:10:12.188Z,99767.84
2023-06-06T01:11:15.084Z,99773.28
2023-06-06T01:12:33.680Z,99773.31
2023-06-06T01:13:39.589Z,99777.00
2023-06-06T01:15:10.393Z,99776.50
2023-06-06T01:16:11.092Z,99779.13
2023-06-06T01:17:09.845Z,99775.53
2023-06-06T01:18:08.074Z,99777.22
2023-06-06T01:19:05.977Z,99782.47
2023-06-06T01:20:03.386Z,99777.94
2023-06-06T01:21:00.606Z,99780.78
2023-06-06T01:21:58.556Z,99772.81
2023-06-06T01:22:56.189Z,99775.31
2023-06-06T01:23:53.260Z,99775.91
2023-06-06T01:24:53.915Z,99771.53
2023-06-06T01:25:50.981Z,99778.88
2023-06-06T01:26:47.988Z,99777.22
2023-06-06T01:27:46.387Z,99782.69
2023-06-06T01:28:43.274Z,99779.37
2023-06-06T01:29:40.127Z,99781.88
2023-06-06T01:30:37.021Z,99780.41
2023-06-06T01:31:37.938Z,99781.00
2023-06-06T01:32:34.945Z,99777.09
2023-06-06T01:33:42.277Z,99787.78
2023-06-06T01:35:22.458Z,99782.47
2023-06-06T01:36:41.073Z,99776.75
2023-06-06T01:37:49.945Z,99788.13
2023-06-06T01:38:49.828Z,99774.94
2023-06-06T01:39:48.977Z,99770.09
2023-06-06T01:40:47.952Z,99767.13
2023-06-06T01:41:46.764Z,99768.06
2023-06-06T01:42:50.715Z,99761.41
2023-06-06T01:43:48.814Z,99760.59
2023-06-06T01:44:45.955Z,99759.97
2023-06-06T01:45:43.313Z,99764.41
2023-06-06T01:46:41.598Z,99758.06
2023-06-06T01:47:41.630Z,99758.06
2023-06-06T01:48:39.063Z,99750.94
2023-06-06T01:49:37.375Z,99751.06
2023-06-06T01:50:34.361Z,99755.75
2023-06-06T01:51:31.376Z,99756.97
2023-06-06T01:52:29.548Z,99752.81
2023-06-06T01:53:26.440Z,99752.72
2023-06-06T01:54:24.220Z,99756.16
2023-06-06T01:55:22.001Z,99752.09
2023-06-06T01:56:19.046Z,99746.03
2023-06-06T01:57:16.556Z,99748.91
2023-06-06T01:58:13.502Z,99751.63
2023-06-06T01:59:10.460Z,99749.50
2023-06-06T02:00:09.739Z,99747.38
2023-06-06T02:01:08.246Z,99747.84
2023-06-06T02:02:05.646Z,99752.72
2023-06-06T02:03:03.086Z,99744.75
2023-06-06T02:04:00.107Z,99746.75
2023-06-06T02:04:57.045Z,99747.50
2023-06-06T02:05:54.932Z,99740.91
2023-06-06T02:06:52.713Z,99739.34
2023-06-06T02:07:50.943Z,99741.63
2023-06-06T02:08:51.420Z,99737.94
2023-06-06T02:09:48.269Z,99745.53
2023-06-06T02:10:45.137Z,99736.59
2023-06-06T02:11:42.741Z,99743.63
2023-06-06T02:12:39.596Z,99737.94
2023-06-06T02:13:36.529Z,99735.06
2023-06-06T02:14:34.141Z,99736.59
2023-06-06T02:15:31.365Z,99729.00
2023-06-06T02:16:29.767Z,99739.09
2023-06-06T02:17:26.672Z,99740.78
2023-06-06T02:18:23.575Z,99740.19
2023-06-06T02:19:20.917Z,99737.69
2023-06-06T02:20:17.876Z,99730.31
2023-06-06T02:21:14.871Z,99744.56
2023-06-06T02:22:11.742Z,99740.50
2023-06-06T02:23:08.702Z,99740.84
2023-06-06T02:24:06.073Z,99736.84
2023-06-06T02:25:04.887Z,99735.84
2023-06-06T02:26:02.033Z,99741.66
2023-06-06T02:26:59.324Z,99741.56
2023-06-06T02:27:57.880Z,99741.94
2023-06-06T02:28:54.787Z,99742.16
2023-06-06T02:29:51.692Z,99744.91
2023-06-06T02:30:49.297Z,99738.59
2023-06-06T02:31:46.236Z,99744.28
2023-06-06T02:32:43.163Z,99738.84
2023-06-06T02:33:40.085Z,99742.37
2023-06-06T02:34:37.006Z,99743.94
2023-06-06T02:35:33.914Z,99754.12
2023-06-06T02:36:33.629Z,99746.12
2023-06-06T02:37:34.469Z,99742.06
2023-06-06T02:38:31.445Z,99750.16
2023-06-06T02:39:28.443Z,99742.91
2023-06-06T02:40:25.267Z,99751.25
2023-06-06T02:41:22.216Z,99746.50
2023-06-06T02:42:19.195Z,99746.50
2023-06-06T02:43:16.757Z,99746.84
2023-06-06T02:44:13.878Z,99745.03
2023-06-06T02:45:11.825Z,99748.72
2023-06-06T02:46:09.063Z,99742.91
2023-06-06T02:47:06.735Z,99741.37
2023-06-06T02:48:04.307Z,99746.84
2023-06-06T02:49:01.608Z,99741.37
2023-06-06T02:49:58.458Z,99745.66
2023-06-06T02:50:55.394Z,99744.22
2023-06-06T02:51:52.298Z,99743.16
2023-06-06T02:52:49.200Z,99743.16
2023-06-06T02:53:46.155Z,99744.81
2023-06-06T02:54:43.114Z,99749.03
2023-06-06T02:55:40.073Z,99744.53
2023-06-06T02:56:37.126Z,99747.25
2023-06-06T02:57:34.076Z,99750.59
2023-06-06T02:58:31.643Z,99740.75
2023-06-06T02:59:28.606Z,99745.75
2023-06-06T03:00:25.535Z,99736.94
2023-06-06T03:01:22.611Z,99744.91
2023-06-06T03:02:19.572Z,99749.56
2023-06-06T03:03:16.476Z,99739.25
2023-06-06T03:04:14.368Z,99744.53
2023-06-06T03:05:13.449Z,99745.75
2023-06-06T03:06:11.352Z,99747.66
2023-06-06T03:07:11.394Z,99746.66
2023-06-06T03:08:08.289Z,99742.41
2023-06-06T03:09:05.653Z,99747.88
2023-06-06T03:10:02.658Z,99745.62
2023-06-06T03:10:59.554Z,99745.12
2023-06-06T03:11:56.526Z,99747.84
2023-06-06T03:12:53.346Z,99748.19
2023-06-06T03:13:50.244Z,99744.28
2023-06-06T03:14:56.639Z,99753.97
2023-06-06T03:15:54.843Z,99746.06
2023-06-06T03:16:53.301Z,99750.47
2023-06-06T03:17:50.229Z,99748.78
2023-06-06T03:18:48.446Z,99745.62
2023-06-06T03:19:47.036Z,99746.22
2023-06-06T03:20:46.424Z,99751.19
2023-06-06T03:21:45.088Z,99745.75
2023-06-06T03:22:41.939Z,99749.69
2023-06-06T03:23:38.840Z,99750.06
2023-06-06T03:24:37.111Z,99746.03
2023-06-06T03:25:34.852Z,99748.75
2023-06-06T03:26:33.060Z,99757.87
2023-06-06T03:27:29.949Z,99751.81
2023-06-06T03:28:26.816Z,99751.09
2023-06-06T03:29:23.807Z,99756.56
2023-06-06T03:30:20.855Z,99756.34
2023-06-06T03:31:18.011Z,99753.84
2023-06-06T03:32:15.041Z,99750.44
2023-06-06T03:33:12.088Z,99757.53
2023-06-06T03:34:09.301Z,99753.50
2023-06-06T03:35:06.689Z,99754.22
2023-06-06T03:36:07.750Z,99750.78
2023-06-06T03:37:04.934Z,99743.78
2023-06-06T03:38:02.697Z,99754.28
2023-06-06T03:39:01.618Z,99753.78
2023-06-06T03:39:58.450Z,99755.69
2023-06-06T03:40:55.404Z,99751.53
2023-06-06T03:41:52.424Z,99743.09
2023-06-06T03:42:49.458Z,99755.09
2023-06-06T03:43:46.389Z,99752.47
2023-06-06T03:44:44.535Z,99752.03
2023-06-06T03:45:41.513Z,99754.06
2023-06-06T03:46:38.471Z,99757.41
2023-06-06T03:47:35.726Z,99756.09
2023-06-06T03:48:32.759Z,99760.03
2023-06-06T03:49:29.747Z,99761.66
2023-06-06T03:50:26.660Z,99759.66
2023-06-06T03:51:23.501Z,99759.19
2023-06-06T03:52:20.618Z,99754.06
2023-06-06T03:53:17.825Z,99758.25
2023-06-06T03:54:14.787Z,99758.41
2023-06-06T03:55:12.220Z,99754.81
2023-06-06T03:56:09.785Z,99760.66
2023-06-06T03:57:10.730Z,99759.22
2023-06-06T03:58:08.716Z,99759.00
2023-06-06T03:59:07.216Z,99757.00
2023-06-06T04:00:15.446Z,99763.06
2023-06-06T04:01:13.098Z,99763.53
2023-06-06T04:02:10.067Z,99759.72
2023-06-06T04:03:07.303Z,99762.34
2023-06-06T04:04:04.587Z,99761.88
2023-06-06T04:05:02.649Z,99764.63
2023-06-06T04:06:03.884Z,99764.13
2023-06-06T04:07:00.947Z,99768.41
2023-06-06T04:07:57.847Z,99766.03
2023-06-06T04:08:54.944Z,99762.00
2023-06-06T04:09:52.076Z,99760.34
2023-06-06T04:10:48.978Z,99775.06
2023-06-06T04:11:46.041Z,99769.81
2023-06-06T04:12:42.902Z,99762.13
2023-06-06T04:13:39.908Z,99768.41
2023-06-06T04:14:36.886Z,99767.84
2023-06-06T04:15:33.804Z,99769.25
2023-06-06T04:16:30.747Z,99769.50
2023-06-06T04:17:30.356Z,99777.09
2023-06-06T04:18:27.253Z,99773.06
2023-06-06T04:19:24.252Z,99780.22
2023-06-06T04:20:21.250Z,99775.44
2023-06-06T04:21:18.135Z,99774.28
2023-06-06T04:22:16.484Z,99777.84
2023-06-06T04:23:13.405Z,99776.50
2023-06-06T04:24:12.467Z,99770.56
2023-06-06T04:25:09.594Z,99778.41
2023-06-06T04:26:06.518Z,99772.37
2023-06-06T04:27:06.770Z,99778.78
2023-06-06T04:28:03.801Z,99783.91
2023-06-06T04:29:01.445Z,99778.91
2023-06-06T04:30:02.588Z,99782.09
2023-06-06T04:31:01.378Z,99774.50
2023-06-06T04:31:58.350Z,99775.69
2023-06-06T04:32:55.767Z,99776.75
2023-06-06T04:33:58.247Z,99779.13
2023-06-06T04:34:58.816Z,99773.91
2023-06-06T04:35:56.235Z,99773.78
2023-06-06T04:36:53.965Z,99773.63
2023-06-06T04:37:55.375Z,99774.50
2023-06-06T04:38:52.916Z,99773.03
2023-06-06T04:39:53.754Z,99777.44
2023-06-06T04:41:53.889Z,99774.94
2023-06-06T04:42:51.506Z,99775.97
2023-06-06T04:43:52.772Z,99769.84
2023-06-06T04:44:50.882Z,99772.84
2023-06-06T04:45:48.405Z,99771.84
2023-06-06T04:46:45.457Z,99769.97
2023-06-06T04:47:45.494Z,99761.84
2023-06-06T04:48:42.379Z,99766.75
2023-06-06T04:49:41.248Z,99767.75
2023-06-06T04:50:38.236Z,99777.63
2023-06-06T04:51:39.321Z,99768.69
2023-06-06T04:52:37.378Z,99764.47
2023-06-06T04:53:34.654Z,99763.97
2023-06-06T04:54:31.615Z,99765.31
2023-06-06T04:55:28.888Z,99768.19
2023-06-06T04:56:28.359Z,99769.59
2023-06-06T04:57:25.845Z,99764.94
2023-06-06T04:58:23.338Z,99771.00
2023-06-06T04:59:23.796Z,99764.37
2023-06-06T05:00:20.695Z,99765.19
2023-06-06T05:01:18.182Z,99769.59
2023-06-06T05:02:15.265Z,99765.34
2023-06-06T05:03:12.558Z,99767.44
2023-06-06T05:04:09.696Z,99764.81
2023-06-06T05:05:09.099Z,99765.41
2023-06-06T05:06:07.219Z,99761.50
2023-06-06T05:07:04.458Z,99760.31
2023-06-06T05:08:01.390Z,99765.78
2023-06-06T05:09:06.127Z,99763.91
2023-06-06T05:10:04.082Z,99766.53
2023-06-06T05:11:01.039Z,99767.72
2023-06-06T05:11:57.939Z,99767.88
2023-06-06T05:12:54.871Z,99771.16
2023-06-06T05:13:51.784Z,99778.38
2023-06-06T05:14:50.202Z,99782.31
2023-06-06T05:15:47.130Z,99773.03
2023-06-06T05:16:48.233Z,99780.28
2023-06-06T05:17:58.234Z,99775.72
2023-06-06T05:18:55.437Z,99775.50
2023-06-06T05:19:52.591Z,99777.91
2023-06-06T05:20:49.668Z,99777.06
2023-06-06T05:21:46.967Z,99776.72
2023-06-06T05:22:43.805Z,99780.81
2023-06-06T05:23:41.571Z,99781.31
2023-06-06T05:24:38.480Z,99788.53
2023-06-06T05:25:35.360Z,99785.06
2023-06-06T05:26:32.254Z,99786.34
2023-06-06T05:27:29.120Z,99780.22
2023-06-06T05:28:27.321Z,99783.72
2023-06-06T05:29:26.450Z,99777.56
2023-06-06T05:30:23.378Z,99785.88
2023-06-06T05:31:22.679Z,99782.16
2023-06-06T05:32:19.679Z,99777.41
2023-06-06T05:33:16.613Z,99783.62
2023-06-06T05:34:13.640Z,99775.66
2023-06-06T05:35:10.605Z,99771.44
2023-06-06T05:36:07.492Z,99775.97
2023-06-06T05:37:04.619Z,99778.72
2023-06-06T05:38:01.716Z,99776.69
2023-06-06T05:38:59.229Z,99778.88
2023-06-06T05:39:56.329Z,99771.66
2023-06-06T05:40:53.336Z,99775.13
2023-06-06T05:41:52.082Z,99777.34
2023-06-06T05:42:48.999Z,99783.41
2023-06-06T05:43:47.320Z,99784.28
2023-06-06T05:44:44.925Z,99781.13
2023-06-06T05:45:45.035Z,99789.47
2023-06-06T05:46:42.323Z,99784.91
2023-06-06T05:47:39.430Z,99784.69
2023-06-06T05:48:36.464Z,99785.50
2023-06-06T05:49:33.360Z,99782.41
2023-06-06T05:50:30.337Z,99789.22
2023-06-06T05:51:27.574Z,99784.25
2023-06-06T05:52:24.409Z,99785.44
2023-06-06T05:53:22.942Z,99783.94
2023-06-06T05:54:19.996Z,99783.94
2023-06-06T05:55:34.173Z,99792.75
2023-06-06T05:56:31.099Z,99790.38
2023-06-06T05:57:27.940Z,99799.06
2023-06-06T05:58:24.827Z,99791.72
2023-06-06T05:59:21.761Z,99790.03
2023-06-06T06:00:18.930Z,99788.09
2023-06-06T06:01:16.063Z,99787.34
2023-06-06T06:02:15.440Z,99793.50
2023-06-06T06:03:13.564Z,99791.75
2023-06-06T06:04:10.822Z,99792.69
2023-06-06T06:05:08.371Z,99791.75
2023-06-06T06:06:06.606Z,99789.84
2023-06-06T06:07:03.610Z,99790.66
2023-06-06T06:08:03.208Z,99785.28
2023-06-06T06:09:02.894Z,99790.22
2023-06-06T06:10:00.252Z,99795.75
2023-06-06T06:10:57.351Z,99796.44
2023-06-06T06:11:54.188Z,99796.91
2023-06-06T06:12:51.052Z,99792.69
2023-06-06T06:13:48.070Z,99798.59
2023-06-06T06:14:44.947Z,99793.75
2023-06-06T06:15:41.782Z,99793.69
2023-06-06T06:16:38.783Z,99796.66
2023-06-06T06:17:35.767Z,99803.78
2023-06-06T06:18:33.162Z,99802.94
2023-06-06T06:19:29.998Z,99802.03
2023-06-06T06:20:27.480Z,99807.81
2023-06-06T06:21:25.863Z,99800.78
2023-06-06T06:22:24.129Z,99802.47
2023-06-06T06:23:21.204Z,99800.53
2023-06-06T06:24:18.027Z,99807.38
2023-06-06T06:25:15.257Z,99805.94
2023-06-06T06:26:12.180Z,99805.16
2023-06-06T06:27:09.538Z,99803.81
2023-06-06T06:28:06.749Z,99812.13
2023-06-06T06:29:03.710Z,99811.44
2023-06-06T06:30:03.257Z,99813.78
2023-06-06T06:31:00.281Z,99809.59
2023-06-06T06:31:57.505Z,99817.63
2023-06-06T06:32:54.452Z,99816.91
2023-06-06T06:33:51.882Z,99817.63
2023-06-06T06:34:48.720Z,99813.13
2023-06-06T06:35:45.901Z,99819.69
2023-06-06T06:36:42.879Z,99816.00
2023-06-06T06:37:41.371Z,99826.78
2023-06-06T06:38:38.596Z,99822.75
2023-06-06T06:39:35.811Z,99819.69
2023-06-06T06:40:32.706Z,99819.19
2023-06-06T06:41:29.643Z,99813.88
2023-06-06T06:42:27.753Z,99816.81
2023-06-06T06:43:24.800Z,99817.41
2023-06-06T06:44:22.038Z,99818.22
2023-06-06T06:45:22.491Z,99821.53
2023-06-06T06:46:19.921Z,99821.34
2023-06-06T06:47:19.057Z,99823.75
2023-06-06T06:48:16.639Z,99817.44
2023-06-06T06:49:19.807Z,99822.78
2023-06-06T06:50:17.160Z,99829.00
2023-06-06T06:51:17.813Z,99828.81
2023-06-06T06:52:17.585Z,99818.22
2023-06-06T06:53:15.879Z,99828.00
2023-06-06T06:54:13.775Z,99826.22
2023-06-06T06:55:12.280Z,99827.13
2023-06-06T06:56:11.100Z,99826.25
2023-06-06T06:57:08.245Z,99819.81
2023-06-06T06:58:07.423Z,99829.28
2023-06-06T06:59:04.988Z,99825.37
2023-06-06T07:00:12.813Z,99827.03
2023-06-06T07:01:10.430Z,99826.47
2023-06-06T07:02:09.337Z,99828.81
2023-06-06T07:03:06.662Z,99824.63
2023-06-06T07:04:07.431Z,99828.06
2023-06-06T07:05:07.280Z,99820.59
2023-06-06T07:06:04.964Z,99817.69
2023-06-06T07:07:02.580Z,99822.28
2023-06-06T07:08:00.988Z,99825.13
2023-06-06T07:08:59.537Z,99816.19
2023-06-06T07:09:58.102Z,99824.63
2023-06-06T07:10:55.016Z,99826.25
2023-06-06T07:11:51.858Z,99822.00
2023-06-06T07:12:50.245Z,99824.22
2023-06-06T07:13:47.150Z,99823.53
2023-06-06T07:14:44.113Z,99832.00
2023-06-06T07:15:41.055Z,99832.97
2023-06-06T07:16:38.020Z,99829.50
2023-06-06T07:17:34.994Z,99833.72
2023-06-06T07:18:32.049Z,99831.38
2023-06-06T07:19:29.338Z,99828.63
2023-06-06T07:20:26.304Z,99827.59
2023-06-06T07:21:25.127Z,99830.34
2023-06-06T07:22:22.167Z,99829.53
2023-06-06T07:23:19.039Z,99827.41
2023-06-06T07:24:19.378Z,99834.28
2023-06-06T07:25:16.628Z,99831.03
2023-06-06T07:26:13.693Z,99833.25
2023-06-06T07:27:10.724Z,99825.53
2023-06-06T07:28:07.863Z,99827.81
2023-06-06T07:29:05.020Z,99834.37
2023-06-06T07:30:06.690Z,99827.50
2023-06-06T07:31:03.786Z,99822.47
2023-06-06T07:32:00.878Z,99833.94
2023-06-06T07:32:57.889Z,99828.50
2023-06-06T07:33:54.974Z,99819.97
2023-06-06T07:34:52.369Z,99825.00
2023-06-06T07:35:49.416Z,99830.09
2023-06-06T07:36:46.409Z,99830.97
2023-06-06T07:37:43.553Z,99831.34
2023-06-06T07:38:40.608Z,99828.13
2023-06-06T07:39:37.581Z,99832.00
2023-06-06T07:40:34.649Z,99836.00
2023-06-06T07:41:31.810Z,99835.84
2023-06-06T07:42:28.846Z,99841.78
2023-06-06T07:43:25.829Z,99836.81
2023-06-06T07:44:22.801Z,99833.31
2023-06-06T07:45:19.708Z,99835.22
2023-06-06T07:46:16.828Z,99836.28
2023-06-06T07:47:13.942Z,99834.56
2023-06-06T07:48:11.123Z,99835.59
2023-06-06T07:49:10.381Z,99828.44
2023-06-06T07:50:08.330Z,99835.84
2023-06-06T07:51:05.330Z,99833.91
2023-06-06T07:52:02.352Z,99834.16
2023-06-06T07:52:59.318Z,99834.53
2023-06-06T07:53:56.432Z,99836.09
2023-06-06T07:54:53.549Z,99832.91
2023-06-06T07:55:50.748Z,99836.28
2023-06-06T07:56:47.750Z,99840.13
2023-06-06T07:57:46.877Z,99839.03
2023-06-06T07:58:47.927Z,99841.53
2023-06-06T07:59:45.476Z,99836.88
2023-06-06T08:00:42.939Z,99832.72
2023-06-06T08:01:40.222Z,99840.22
2023-06-06T08:02:37.681Z,99835.22
2023-06-06T08:03:34.957Z,99832.47
2023-06-06T08:04:32.094Z,99836.66
2023-06-06T08:05:29.109Z,99840.37
2023-06-06T08:06:26.383Z,99831.38
2023-06-06T08:07:23.427Z,99836.19
2023-06-06T08:08:20.298Z,99834.81
2023-06-06T08:09:17.655Z,99827.94
2023-06-06T08:10:14.780Z,99834.19
2023-06-06T08:11:12.196Z,99835.22
2023-06-06T08:12:09.787Z,99836.09
2023-06-06T08:13:06.806Z,99831.41
2023-06-06T08:14:04.119Z,99833.81
2023-06-06T08:15:01.254Z,99836.41
2023-06-06T08:15:58.251Z,99829.34
2023-06-06T08:16:55.220Z,99829.72
2023-06-06T08:17:53.033Z,99838.00
2023-06-06T08:18:50.207Z,99835.41
2023-06-06T08:19:47.056Z,99823.31
2023-06-06T08:20:44.147Z,99832.47
2023-06-06T08:21:41.225Z,99831.69
2023-06-06T08:22:39.592Z,99826.78
2023-06-06T08:23:36.591Z,99831.31
2023-06-06T08:24:33.597Z,99835.25
2023-06-06T08:25:31.073Z,99826.66
2023-06-06T08:26:28.909Z,99836.50
2023-06-06T08:27:26.016Z,99830.03
2023-06-06T08:28:26.660Z,99834.25
2023-06-06T08:29:23.724Z,99833.09
2023-06-06T08:30:22.544Z,99831.97
2023-06-06T08:31:20.173Z,99826.47
2023-06-06T08:32:17.222Z,99828.28
2023-06-06T08:33:14.286Z,99824.28
2023-06-06T08:34:11.524Z,99822.72
2023-06-06T08:35:08.998Z,99821.56
2023-06-06T08:36:07.685Z,99832.59
2023-06-06T08:37:05.016Z,99831.59
2023-06-06T08:38:02.171Z,99823.50
2023-06-06T08:38:59.269Z,99824.63
2023-06-06T08:39:56.385Z,99821.47
2023-06-06T08:40:54.415Z,99827.91
2023-06-06T08:41:52.746Z,99822.72
2023-06-06T08:42:53.763Z,99822.00
2023-06-06T08:43:52.084Z,99826.59
2023-06-06T08:44:53.158Z,99828.38
2023-06-06T08:45:57.770Z,99829.25
2023-06-06T08:46:56.334Z,99828.19
2023-06-06T08:47:55.825Z,99831.50
2023-06-06T08:48:53.438Z,99832.31
2023-06-06T08:49:50.481Z,99829.78
2023-06-06T08:50:48.107Z,99836.16
2023-06-06T08:51:48.346Z,99830.94
2023-06-06T08:52:46.040Z,99833.66
2023-06-06T08:53:44.875Z,99826.22
2023-06-06T08:54:42.495Z,99827.59
2023-06-06T08:55:39.647Z,99835.59
2023-06-06T08:56:38.876Z,99833.41
2023-06-06T08:57:43.148Z,99833.97
2023-06-06T08:58:40.678Z,99832.59
2023-06-06T08:59:41.568Z,99830.47
2023-06-06T09:00:38.546Z,99829.03
2023-06-06T09:01:38.514Z,99822.19
2023-06-06T09:02:36.107Z,99831.03
2023-06-06T09:03:35.757Z,99829.66
2023-06-06T09:04:33.316Z,99826.63
2023-06-06T09:05:30.498Z,99836.75
2023-06-06T09:06:27.792Z,99840.59
2023-06-06T09:07:26.227Z,99841.44
2023-06-06T09:08:25.092Z,99837.91
2023-06-06T09:09:22.420Z,99832.13
2023-06-06T09:10:19.527Z,99832.41
2023-06-06T09:11:17.541Z,99824.13
2023-06-06T09:12:14.567Z,99828.81
2023-06-06T09:13:11.449Z,99825.22
2023-06-06T09:14:08.686Z,99832.41
2023-06-06T09:15:06.525Z,99831.81
2023-06-06T09:16:06.163Z,99823.47
2023-06-06T09:17:04.281Z,99828.50
2023-06-06T09:18:01.336Z,99825.66
2023-06-06T09:18:59.259Z,99828.38
2023-06-06T09:20:00.401Z,99823.94
2023-06-06T09:20:58.320Z,99829.94
2023-06-06T09:22:00.180Z,99828.00
2023-06-06T09:22:58.842Z,99825.22
2023-06-06T09:23:56.142Z,99827.16
2023-06-06T09:24:57.969Z,99826.41
2023-06-06T09:25:55.026Z,99827.00
2023-06-06T09:26:52.121Z,99826.84
2023-06-06T09:27:54.250Z,99819.56
2023-06-06T09:28:51.422Z,99828.25
2023-06-06T09:29:48.428Z,99821.69
2023-06-06T09:30:45.508Z,99825.31
2023-06-06T09:31:43.447Z,99823.25
2023-06-06T09:32:43.638Z,99822.06
2023-06-06T09:33:41.548Z,99813.59
2023-06-06T09:34:38.546Z,99816.00
2023-06-06T09:35:37.678Z,99813.91
2023-06-06T09:36:34.819Z,99808.47
2023-06-06T09:37:33.012Z,99812.44
2023-06-06T09:38:32.960Z,99806.69
2023-06-06T09:39:29.917Z,99811.94
2023-06-06T09:40:27.817Z,99811.94
2023-06-06T09:41:24.876Z,99804.22
2023-06-06T09:42:21.922Z,99809.16
2023-06-06T09:43:26.236Z,99808.13
2023-06-06T09:44:29.670Z,99803.16
2023-06-06T09:45:27.134Z,99807.00
2023-06-06T09:46:25.128Z,99799.78
2023-06-06T09:47:22.421Z,99799.25
2023-06-06T09:48:23.203Z,99805.81
2023-06-06T09:49:22.237Z,99808.28
2023-06-06T09:50:20.588Z,99806.62
2023-06-06T09:51:17.755Z,99795.09
2023-06-06T09:52:15.023Z,99791.00
2023-06-06T09:53:14.836Z,99795.44
2023-06-06T09:54:12.448Z,99797.09
2023-06-06T09:55:13.125Z,99800.66
2023-06-06T09:56:10.372Z,99799.56
2023-06-06T09:57:15.636Z,99794.84
2023-06-06T09:58:18.677Z,99798.41
2023-06-06T09:59:16.092Z,99801.22
2023-06-06T10:00:16.387Z,99799.84
2023-06-06T10:01:14.477Z,99794.31
2023-06-06T10:02:12.915Z,99799.81
2023-06-06T10:03:11.929Z,99793.44
2023-06-06T10:04:10.786Z,99790.19
2023-06-06T10:05:12.271Z,99793.78
2023-06-06T10:06:10.469Z,99792.12
2023-06-06T10:07:09.123Z,99789.91
2023-06-06T10:08:06.907Z,99785.75
2023-06-06T10:09:06.122Z,99792.63
2023-06-06T10:10:03.301Z,99790.38
2023-06-06T10:11:01.209Z,99789.56
2023-06-06T10:11:59.356Z,99785.38
2023-06-06T10:12:58.008Z,99783.09
2023-06-06T10:13:55.588Z,99783.84
2023-06-06T10:14:54.458Z,99790.75
2023-06-06T10:15:51.868Z,99791.25
2023-06-06T10:16:49.331Z,99787.59
2023-06-06T10:17:47.081Z,99783.62
2023-06-06T10:18:47.126Z,99785.41
2023-06-06T10:19:44.630Z,99786.81
2023-06-06T10:20:42.194Z,99785.38
2023-06-06T10:21:39.392Z,99787.25
2023-06-06T10:22:37.861Z,99782.41
2023-06-06T10:23:35.878Z,99784.12
2023-06-06T10:24:33.093Z,99785.66
2023-06-06T10:25:30.966Z,99781.94
2023-06-06T10:26:40.935Z,99781.94
2023-06-06T10:27:48.113Z,99774.00
2023-06-06T10:29:13.193Z,99771.50
2023-06-06T10:30:17.546Z,99776.88
2023-06-06T10:31:20.512Z,99774.00
2023-06-06T10:32:24.351Z,99777.28
2023-06-06T10:33:44.351Z,99773.56
2023-06-06T10:34:43.413Z,99777.12
2023-06-06T10:35:43.770Z,99776.75
2023-06-06T10:36:44.730Z,99775.72
2023-06-06T10:37:43.178Z,99762.00
2023-06-06T10:38:40.088Z,99775.25
2023-06-06T10:39:37.537Z,99768.16
2023-06-06T10:40:57.461Z,99773.69
2023-06-06T10:42:01.137Z,99768.62
2023-06-06T10:43:00.648Z,99765.81
2023-06-06T10:43:57.626Z,99766.63
2023-06-06T10:44:56.383Z,99769.28
2023-06-06T10:45:53.316Z,99772.91
2023-06-06T10:46:51.379Z,99763.50
2023-06-06T10:47:50.256Z,99771.34
2023-06-06T10:48:55.790Z,99769.09
2023-06-06T10:50:12.314Z,99767.31
2023-06-06T10:51:25.930Z,99757.97
2023-06-06T10:52:26.645Z,99765.16
2023-06-06T10:53:24.613Z,99766.47
2023-06-06T10:54:29.080Z,99761.66
2023-06-06T10:55:26.480Z,99766.56
2023-06-06T10:56:33.564Z,99762.91
2023-06-06T10:57:30.567Z,99766.25
2023-06-06T10:58:35.678Z,99772.53
2023-06-06T10:59:33.671Z,99763.41
2023-06-06T11:00:33.941Z,99769.75
2023-06-06T11:01:36.714Z,99762.38
2023-06-06T11:02:35.094Z,99767.31
2023-06-06T11:03:40.031Z,99765.50
2023-06-06T11:04:39.411Z,99767.81
2023-06-06T11:06:25.776Z,99771.53
2023-06-06T11:07:28.932Z,99771.38
2023-06-06T11:08:44.508Z,99770.41
2023-06-06T11:09:43.259Z,99772.75
2023-06-06T11:10:49.802Z,99763.13
2023-06-06T11:11:46.787Z,99767.88
2023-06-06T11:12:43.646Z,99766.19
2023-06-06T11:13:54.638Z,99768.59
2023-06-06T11:14:58.860Z,99762.28
2023-06-06T11:15:57.090Z,99762.25
2023-06-06T11:17:00.514Z,99769.47
2023-06-06T11:18:03.072Z,99766.63
2023-06-06T11:19:12.718Z,99767.00
2023-06-06T11:20:17.856Z,99757.44
2023-06-06T11:21:19.608Z,99760.88
2023-06-06T11:22:24.821Z,99761.56
2023-06-06T11:23:22.681Z,99760.47
2023-06-06T11:24:22.762Z,99757.13
2023-06-06T11:25:26.121Z,99745.09
2023-06-06T11:26:24.123Z,99752.00
2023-06-06T11:27:21.108Z,99750.16
2023-06-06T11:28:23.070Z,99753.50
2023-06-06T11:29:21.856Z,99749.31
2023-06-06T11:30:18.903Z,99747.59